CYOD

CFB Cold Lake Airport

Cold Lake, Alberta, Canada
METAR CYOD 190000Z 11006KT 10SM -SN OVC024 M10/M13 A3009 RMK SC8 SLP233
Observed Flight Rules
Nov-19 @ 00:00 UTC (58 minutes ago) Marginal Visual Flight Rules
Wind Visibility Clouds Conditions
110° at 6 knots 10 miles
  • Overcast at 2,400' AGL
  • Light Snow
Temperatures Readings
Current -10°C / 14°F
Dewpoint -13°C / 9°F
Humidity 79%
Altimeter 30.09" Hg
Pressure 1023.3 hPa
Elevation 544
METAR CYOD 190000Z 11006KT 10SM -SN OVC024 M10/M13 A3009 RMK SC8 SLP233
Observed Flight Rules
Nov-19 @ 00:00 UTC
(58 minutes ago)
MVFR
Wind Visibility
110° at 6 knots 10 miles
Clouds
  • Overcast at 2,400' AGL
Conditions
  • Light Snow
Temperature Dewpoint
-10°C / 14°F -13°C / 9°F
Humidity Altimeter Pressure
79% 30.09" Hg 1023.3 hPa